East Jefferson, New York
Current Conditions -  °F | °C
As of 10:35 PM on Friday 28 Nov 2014 (Local Time) from KNY0 Reporting Station
Overcast Overcast  
Wind Chill: 12°   Ceiling: 4000
Heat Index: 19°   Visibility: 7mi
Dew Point: 13°   Wind: 5mph
Humidity: 78%   Direction: 260°W
Pressure: 30.2"   Gusts: NA
Location:  42.5008°N, 74.6014°W
Report Text: KNY0 290335Z AUTO 26004KT 7SM OVC040 M07/M11 A3020 RMK AO2 T10751107
Loading
Personal Weather Stations






























Interactive Weather Map New forecast layout! Learn more

10-Day Weather Forecast

Advertisements
Track Severe Weather on mobile